Time;durP1;ratioP1;P1;durP2;ratioP2;P2;SDS_P1;SDS_P2;PMS_P1;PMS_P2;Temp;Humidity;BMP_temperature;BMP_pressure;BME280_temperature;BME280_humidity;BME280_pressure;Samples;Min_cycle;Max_cycle;Signal;HPM_P1;HPM_P2
2022/07/15 00:01:41;;;;;;;6.68;2.05;;;;;;;;;;4956683;29;20028;-75
2022/07/15 00:04:09;;;;;;;7.97;2.30;;;;;;;;;;4956785;29;20031;-75
2022/07/15 00:06:36;;;;;;;7.65;2.58;;;;;;;;;;4956749;29;20134;-76
2022/07/15 00:09:02;;;;;;;7.22;2.30;;;;;;;;;;4956815;29;20023;-75
2022/07/15 00:11:28;;;;;;;5.90;2.03;;;;;;;;;;4987812;28;20386;-75
2022/07/15 00:13:54;;;;;;;8.02;2.10;;;;;;;;;;4956609;29;20034;-76
2022/07/15 00:16:20;;;;;;;9.25;2.25;;;;;;;;;;4956642;29;20050;-75
2022/07/15 00:18:46;;;;;;;5.05;1.90;;;;;;;;;;4971454;28;20462;-75
2022/07/15 00:21:12;;;;;;;6.22;1.90;;;;;;;;;;4975738;28;20373;-76
2022/07/15 00:23:38;;;;;;;8.27;2.13;;;;;;;;;;4975894;28;20026;-76
2022/07/15 00:26:04;;;;;;;5.63;2.15;;;;;;;;;;4975780;28;20038;-75
2022/07/15 00:28:30;;;;;;;6.82;2.10;;;;;;;;;;4975644;28;20025;-76
2022/07/15 00:30:56;;;;;;;8.23;2.10;;;;;;;;;;4975466;28;20537;-75
2022/07/15 00:33:22;;;;;;;8.52;2.05;;;;;;;;;;4975568;28;20117;-76
2022/07/15 00:35:49;;;;;;;12.27;2.30;;;;;;;;;;4975650;28;20035;-75
2022/07/15 00:38:15;;;;;;;9.82;2.13;;;;;;;;;;4974551;28;20362;-76
2022/07/15 00:40:48;;;;;;;10.90;2.67;;;;;;;;;;4975638;28;20042;-76
2022/07/15 00:43:17;;;;;;;10.13;2.10;;;;;;;;;;4975762;28;20421;-76
2022/07/15 00:45:44;;;;;;;11.50;2.63;;;;;;;;;;4975387;28;20099;-76
2022/07/15 00:48:10;;;;;;;6.88;2.55;;;;;;;;;;4975542;28;20098;-76
2022/07/15 00:50:37;;;;;;;8.93;2.75;;;;;;;;;;4975119;28;20023;-78
2022/07/15 00:53:29;;;;;;;12.18;2.88;;;;;;;;;;4975598;28;20075;-76
2022/07/15 00:55:57;;;;;;;9.60;2.53;;;;;;;;;;4973589;28;20043;-76
2022/07/15 00:58:24;;;;;;;11.05;2.35;;;;;;;;;;4973985;28;20034;-76
2022/07/15 01:00:50;;;;;;;9.02;2.20;;;;;;;;;;4975038;28;20097;-75
2022/07/15 01:03:18;;;;;;;8.07;2.88;;;;;;;;;;4975086;28;20162;-76
2022/07/15 01:05:46;;;;;;;9.50;2.38;;;;;;;;;;4975100;28;20065;-78
2022/07/15 01:08:12;;;;;;;8.82;2.40;;;;;;;;;;4975374;28;20517;-76
2022/07/15 01:10:39;;;;;;;5.35;2.50;;;;;;;;;;4975047;28;20042;-76
2022/07/15 01:13:05;;;;;;;19.20;2.90;;;;;;;;;;4974979;28;20030;-76
2022/07/15 01:15:32;;;;;;;14.18;3.10;;;;;;;;;;4975170;28;20136;-76
2022/07/15 01:17:59;;;;;;;14.13;2.70;;;;;;;;;;4974976;28;20081;-76
2022/07/15 01:20:25;;;;;;;10.27;3.00;;;;;;;;;;4974809;28;20058;-76
2022/07/15 01:22:51;;;;;;;10.85;2.95;;;;;;;;;;4973187;28;20023;-75
2022/07/15 01:25:17;;;;;;;10.38;2.97;;;;;;;;;;4974799;28;20130;-76
2022/07/15 01:27:43;;;;;;;8.57;3.15;;;;;;;;;;4974506;28;20026;-76
2022/07/15 01:30:11;;;;;;;9.70;3.67;;;;;;;;;;4974457;28;20022;-76
2022/07/15 01:32:37;;;;;;;9.38;2.80;;;;;;;;;;4974858;28;20105;-76
2022/07/15 01:35:03;;;;;;;11.85;2.95;;;;;;;;;;4974143;28;20068;-76
2022/07/15 01:37:29;;;;;;;10.57;3.05;;;;;;;;;;4974405;28;20027;-76
2022/07/15 01:39:55;;;;;;;12.95;2.95;;;;;;;;;;4974070;28;20038;-76
2022/07/15 01:42:22;;;;;;;12.07;4.35;;;;;;;;;;4973071;28;20099;-76
2022/07/15 01:44:48;;;;;;;8.23;2.60;;;;;;;;;;4973906;28;20106;-76
2022/07/15 01:47:14;;;;;;;12.52;3.10;;;;;;;;;;4973930;28;20106;-78
2022/07/15 01:49:40;;;;;;;7.13;2.65;;;;;;;;;;4974207;28;20038;-78
2022/07/15 01:52:09;;;;;;;10.48;3.20;;;;;;;;;;4974188;28;20026;-78
2022/07/15 01:54:35;;;;;;;11.30;2.70;;;;;;;;;;4973973;28;20022;-78
2022/07/15 01:57:01;;;;;;;11.98;3.05;;;;;;;;;;4974225;28;20429;-76
2022/07/15 01:59:27;;;;;;;14.10;2.80;;;;;;;;;;4974075;28;20046;-77
2022/07/15 02:01:54;;;;;;;8.75;2.70;;;;;;;;;;4973879;28;20034;-77
2022/07/15 02:04:21;;;;;;;9.35;2.75;;;;;;;;;;4973460;28;20034;-76
2022/07/15 02:06:47;;;;;;;6.40;2.55;;;;;;;;;;4973547;28;20070;-77
2022/07/15 02:09:13;;;;;;;11.13;3.38;;;;;;;;;;4973973;28;20537;-78
2022/07/15 02:11:39;;;;;;;12.70;3.45;;;;;;;;;;4973794;28;20502;-77
2022/07/15 02:14:05;;;;;;;14.63;3.40;;;;;;;;;;4973834;28;20086;-78
2022/07/15 02:16:32;;;;;;;12.95;3.60;;;;;;;;;;4973688;28;20077;-78
2022/07/15 02:18:59;;;;;;;10.82;3.22;;;;;;;;;;4973628;28;20470;-77
2022/07/15 02:21:28;;;;;;;12.57;2.95;;;;;;;;;;4973527;28;20022;-77
2022/07/15 02:23:54;;;;;;;9.50;3.25;;;;;;;;;;4973659;28;20031;-77
2022/07/15 02:26:20;;;;;;;10.23;3.00;;;;;;;;;;4973722;28;20184;-77
2022/07/15 02:28:47;;;;;;;11.13;4.03;;;;;;;;;;4972265;28;20046;-77
2022/07/15 02:31:13;;;;;;;9.68;3.47;;;;;;;;;;4973388;28;20397;-77
2022/07/15 02:33:39;;;;;;;12.40;3.30;;;;;;;;;;4973297;28;20125;-77
2022/07/15 02:36:06;;;;;;;11.95;2.97;;;;;;;;;;4973524;28;20034;-77
2022/07/15 02:38:32;;;;;;;9.18;3.15;;;;;;;;;;4973680;28;20062;-77
2022/07/15 02:40:58;;;;;;;16.27;3.50;;;;;;;;;;4973505;28;20366;-77
2022/07/15 02:43:24;;;;;;;11.50;3.45;;;;;;;;;;4973595;28;20034;-77
2022/07/15 02:45:50;;;;;;;12.32;3.25;;;;;;;;;;4973319;28;20110;-77
2022/07/15 02:48:16;;;;;;;10.00;3.17;;;;;;;;;;4973545;28;20026;-77
2022/07/15 02:50:42;;;;;;;10.75;3.25;;;;;;;;;;4973463;28;20027;-77
2022/07/15 02:53:09;;;;;;;15.10;3.55;;;;;;;;;;4973475;28;20429;-77
2022/07/15 02:55:35;;;;;;;12.95;3.10;;;;;;;;;;4973392;28;20030;-77
2022/07/15 02:58:02;;;;;;;9.52;3.38;;;;;;;;;;4973574;28;20520;-77
2022/07/15 03:00:28;;;;;;;9.40;3.40;;;;;;;;;;4973339;28;20019;-77
2022/07/15 03:02:54;;;;;;;8.07;3.42;;;;;;;;;;4973233;28;20031;-78
2022/07/15 03:05:20;;;;;;;15.52;3.90;;;;;;;;;;4972420;28;20046;-77
2022/07/15 03:07:46;;;;;;;9.43;3.03;;;;;;;;;;4973835;28;20041;-77
2022/07/15 03:10:13;;;;;;;20.33;3.92;;;;;;;;;;4973431;28;20035;-77
2022/07/15 03:12:39;;;;;;;11.90;3.40;;;;;;;;;;4973340;28;20529;-78
2022/07/15 03:15:05;;;;;;;14.93;3.83;;;;;;;;;;4973524;28;20391;-77
2022/07/15 03:17:31;;;;;;;16.63;4.55;;;;;;;;;;4971223;28;20019;-78
2022/07/15 03:19:57;;;;;;;12.38;3.42;;;;;;;;;;4958180;29;20061;-77
2022/07/15 03:22:29;;;;;;;15.13;3.58;;;;;;;;;;4958136;29;20031;-78
2022/07/15 03:24:55;;;;;;;16.60;3.45;;;;;;;;;;4957667;29;20819;-78
2022/07/15 03:27:21;;;;;;;10.18;3.88;;;;;;;;;;4957832;29;20490;-78
2022/07/15 03:29:49;;;;;;;15.30;3.70;;;;;;;;;;4958115;29;20019;-77
2022/07/15 03:32:15;;;;;;;14.07;3.95;;;;;;;;;;4957911;28;20093;-78
2022/07/15 03:34:42;;;;;;;13.65;3.83;;;;;;;;;;4957644;28;20086;-77
2022/07/15 03:37:08;;;;;;;11.68;3.65;;;;;;;;;;4957507;28;20046;-78
2022/07/15 03:39:34;;;;;;;16.23;3.55;;;;;;;;;;4957488;28;20435;-78
2022/07/15 03:42:00;;;;;;;6.72;3.15;;;;;;;;;;4957318;29;20528;-77
2022/07/15 03:44:26;;;;;;;13.77;3.97;;;;;;;;;;4957702;29;20385;-78
2022/07/15 03:46:52;;;;;;;10.95;3.55;;;;;;;;;;4957271;28;20036;-78
2022/07/15 03:49:18;;;;;;;11.23;3.53;;;;;;;;;;4957467;29;20141;-77
2022/07/15 03:51:45;;;;;;;11.93;3.80;;;;;;;;;;4957217;29;20208;-78
2022/07/15 03:54:11;;;;;;;6.43;3.22;;;;;;;;;;4957211;29;20047;-78
2022/07/15 03:56:37;;;;;;;9.63;3.40;;;;;;;;;;4957481;29;20078;-77
2022/07/15 03:59:04;;;;;;;11.23;3.85;;;;;;;;;;4957094;29;20030;-77
2022/07/15 04:01:30;;;;;;;10.77;3.33;;;;;;;;;;4957259;28;20158;-78
2022/07/15 04:03:56;;;;;;;10.50;3.13;;;;;;;;;;4956777;29;20035;-77
2022/07/15 04:06:24;;;;;;;11.50;3.25;;;;;;;;;;4987860;28;20031;-78
2022/07/15 04:08:50;;;;;;;14.18;3.20;;;;;;;;;;4957034;28;20095;-78
2022/07/15 04:11:16;;;;;;;11.82;3.17;;;;;;;;;;4956999;28;20162;-78
2022/07/15 04:13:42;;;;;;;12.77;3.72;;;;;;;;;;4956774;29;20413;-77
2022/07/15 04:16:09;;;;;;;7.95;2.95;;;;;;;;;;4956878;28;20035;-78
2022/07/15 04:18:35;;;;;;;11.48;3.13;;;;;;;;;;4970226;28;20034;-77
2022/07/15 04:21:01;;;;;;;13.32;3.97;;;;;;;;;;4976002;28;20107;-77
2022/07/15 04:23:28;;;;;;;20.38;4.32;;;;;;;;;;4975817;28;20106;-78
2022/07/15 04:25:54;;;;;;;15.65;3.30;;;;;;;;;;4976129;28;20023;-77
2022/07/15 04:28:20;;;;;;;11.85;3.20;;;;;;;;;;4975612;28;20023;-77
2022/07/15 04:30:46;;;;;;;12.15;3.17;;;;;;;;;;4976126;28;20034;-77
2022/07/15 04:33:12;;;;;;;10.73;3.25;;;;;;;;;;4975766;28;20050;-77
2022/07/15 04:35:39;;;;;;;10.40;3.80;;;;;;;;;;4975829;28;20415;-78
2022/07/15 04:38:05;;;;;;;14.23;3.17;;;;;;;;;;4975913;28;20086;-78
2022/07/15 04:40:34;;;;;;;7.72;3.13;;;;;;;;;;4975794;28;20058;-78
2022/07/15 04:43:00;;;;;;;11.43;3.10;;;;;;;;;;4976078;28;20422;-77
2022/07/15 04:45:27;;;;;;;9.82;3.50;;;;;;;;;;4968907;28;20030;-77
2022/07/15 04:47:53;;;;;;;37.85;4.07;;;;;;;;;;4956503;29;20068;-78
2022/07/15 04:53:04;;;;;;;7.93;3.00;;;;;;;;;;4956791;29;20516;-78
2022/07/15 04:55:30;;;;;;;14.88;3.28;;;;;;;;;;4956023;28;20031;-78
2022/07/15 04:57:56;;;;;;;14.07;3.40;;;;;;;;;;4955980;28;20050;-77
2022/07/15 05:00:22;;;;;;;7.75;2.92;;;;;;;;;;4956137;28;20367;-78
2022/07/15 05:02:49;;;;;;;9.07;3.30;;;;;;;;;;4955957;28;20023;-77
2022/07/15 05:05:15;;;;;;;13.73;3.15;;;;;;;;;;4955834;29;20031;-78
2022/07/15 05:07:41;;;;;;;14.25;2.85;;;;;;;;;;4955893;29;20043;-78
2022/07/15 05:10:08;;;;;;;12.50;3.00;;;;;;;;;;4956066;29;20035;-78
2022/07/15 05:12:34;;;;;;;12.38;2.95;;;;;;;;;;4956035;29;20035;-78
2022/07/15 05:15:00;;;;;;;8.18;2.38;;;;;;;;;;4955695;29;20031;-78
2022/07/15 05:17:27;;;;;;;13.23;2.30;;;;;;;;;;4960115;28;20228;-78
2022/07/15 05:19:53;;;;;;;11.65;2.47;;;;;;;;;;4975009;28;20030;-78
2022/07/15 05:22:19;;;;;;;11.45;2.22;;;;;;;;;;4974681;28;20023;-78
2022/07/15 05:24:46;;;;;;;6.40;2.00;;;;;;;;;;4974982;28;20090;-78
2022/07/15 05:27:12;;;;;;;13.50;2.08;;;;;;;;;;4974923;28;20031;-78
2022/07/15 05:29:38;;;;;;;15.43;1.92;;;;;;;;;;4974814;28;20066;-78
2022/07/15 05:32:04;;;;;;;8.15;1.45;;;;;;;;;;4974839;28;20058;-78
2022/07/15 05:34:30;;;;;;;9.25;1.65;;;;;;;;;;4974398;28;20047;-78
2022/07/15 05:36:56;;;;;;;10.27;1.77;;;;;;;;;;4974666;28;20034;-78
2022/07/15 05:39:23;;;;;;;10.38;2.10;;;;;;;;;;4974025;28;20059;-78
2022/07/15 05:41:49;;;;;;;10.07;1.60;;;;;;;;;;4974438;28;20050;-78
2022/07/15 05:44:15;;;;;;;12.95;1.70;;;;;;;;;;4974469;28;20070;-78
2022/07/15 05:46:41;;;;;;;9.00;1.40;;;;;;;;;;4974235;28;20117;-78
2022/07/15 05:49:07;;;;;;;7.57;2.05;;;;;;;;;;4974080;28;20057;-78
2022/07/15 05:51:33;;;;;;;8.02;1.50;;;;;;;;;;4974198;28;20505;-78
2022/07/15 05:54:00;;;;;;;6.25;1.67;;;;;;;;;;4973841;28;20027;-78
2022/07/15 05:56:26;;;;;;;10.27;1.23;;;;;;;;;;4973866;28;20070;-78
2022/07/15 05:58:52;;;;;;;7.57;1.98;;;;;;;;;;4973940;28;20061;-78
2022/07/15 06:01:18;;;;;;;9.00;2.00;;;;;;;;;;4973849;28;20030;-78
2022/07/15 06:03:44;;;;;;;13.13;1.83;;;;;;;;;;4973615;28;20042;-78
2022/07/15 06:06:10;;;;;;;8.35;1.70;;;;;;;;;;4973865;28;20026;-78
2022/07/15 06:08:37;;;;;;;7.28;1.70;;;;;;;;;;4972495;28;20435;-78
2022/07/15 06:11:03;;;;;;;14.35;1.70;;;;;;;;;;4973509;28;20026;-78
2022/07/15 06:13:29;;;;;;;13.05;1.30;;;;;;;;;;4973710;28;20026;-78
2022/07/15 06:15:55;;;;;;;4.53;1.30;;;;;;;;;;4973083;28;20393;-78
2022/07/15 06:18:21;;;;;;;8.55;1.50;;;;;;;;;;4961704;28;20033;-78
2022/07/15 06:20:48;;;;;;;8.20;1.52;;;;;;;;;;4954019;28;20051;-78
2022/07/15 06:23:14;;;;;;;6.60;1.52;;;;;;;;;;4954088;28;20016;-78
2022/07/15 06:25:40;;;;;;;9.57;1.35;;;;;;;;;;4954101;29;20024;-78
2022/07/15 06:28:06;;;;;;;8.00;1.70;;;;;;;;;;4953940;29;20054;-78
2022/07/15 06:30:32;;;;;;;4.85;1.02;;;;;;;;;;4953817;28;20055;-78
2022/07/15 06:32:58;;;;;;;8.57;1.17;;;;;;;;;;4954042;28;20035;-78
2022/07/15 06:35:24;;;;;;;10.98;1.23;;;;;;;;;;4953529;28;20141;-78
2022/07/15 06:37:51;;;;;;;10.38;1.55;;;;;;;;;;4953875;28;20055;-78
2022/07/15 06:40:17;;;;;;;5.22;1.23;;;;;;;;;;4953851;29;20862;-78
2022/07/15 06:42:43;;;;;;;8.73;1.40;;;;;;;;;;4953915;29;20027;-78
2022/07/15 06:45:10;;;;;;;6.80;1.45;;;;;;;;;;4953732;28;20039;-78
2022/07/15 06:47:36;;;;;;;13.25;1.42;;;;;;;;;;4961876;28;20058;-78
2022/07/15 06:50:02;;;;;;;5.75;0.80;;;;;;;;;;4975296;28;20085;-77
2022/07/15 06:52:28;;;;;;;6.35;1.23;;;;;;;;;;4985129;28;20027;-77
2022/07/15 06:54:54;;;;;;;5.40;1.30;;;;;;;;;;4985815;28;20042;-77
2022/07/15 06:57:20;;;;;;;11.38;1.50;;;;;;;;;;4983286;28;20023;-77
2022/07/15 06:59:46;;;;;;;7.50;1.17;;;;;;;;;;4991029;28;20019;-77
2022/07/15 07:02:12;;;;;;;6.05;1.30;;;;;;;;;;4985632;28;20026;-77
2022/07/15 07:04:38;;;;;;;6.38;1.00;;;;;;;;;;4984390;28;20090;-77
2022/07/15 07:07:04;;;;;;;5.70;1.17;;;;;;;;;;4979476;28;20122;-77
2022/07/15 07:09:30;;;;;;;9.90;1.50;;;;;;;;;;4987950;28;20050;-77
2022/07/15 07:11:57;;;;;;;6.13;1.10;;;;;;;;;;4985962;28;20098;-77
2022/07/15 07:14:23;;;;;;;7.78;1.50;;;;;;;;;;4991788;28;20129;-77
2022/07/15 07:16:49;;;;;;;5.47;1.65;;;;;;;;;;4986168;28;20389;-77
2022/07/15 07:19:15;;;;;;;3.75;1.20;;;;;;;;;;4985713;28;20026;-77
2022/07/15 07:21:42;;;;;;;5.82;1.70;;;;;;;;;;4979555;28;20073;-77
2022/07/15 07:24:08;;;;;;;5.80;1.20;;;;;;;;;;4983667;28;20061;-77
2022/07/15 07:26:34;;;;;;;3.75;0.60;;;;;;;;;;4985215;28;20058;-77
2022/07/15 07:29:00;;;;;;;3.45;0.65;;;;;;;;;;4991993;28;20027;-77
2022/07/15 07:31:26;;;;;;;3.45;1.05;;;;;;;;;;4987462;28;20106;-77
2022/07/15 07:33:54;;;;;;;7.25;1.55;;;;;;;;;;4990758;28;20101;-77
2022/07/15 07:36:20;;;;;;;5.72;0.93;;;;;;;;;;4984478;28;20026;-77
2022/07/15 07:38:46;;;;;;;3.67;0.60;;;;;;;;;;4989442;28;20049;-77
2022/07/15 07:41:12;;;;;;;7.57;0.80;;;;;;;;;;4987245;28;20524;-77
2022/07/15 07:43:38;;;;;;;3.85;0.80;;;;;;;;;;4988771;28;20026;-77
2022/07/15 07:46:04;;;;;;;6.90;1.20;;;;;;;;;;4983782;28;20019;-77
2022/07/15 07:48:30;;;;;;;2.63;0.88;;;;;;;;;;4990469;28;20026;-77
2022/07/15 07:50:57;;;;;;;5.75;0.88;;;;;;;;;;4984740;28;20328;-77
2022/07/15 07:53:24;;;;;;;3.53;0.75;;;;;;;;;;4978987;28;20027;-77
2022/07/15 07:55:50;;;;;;;6.30;1.02;;;;;;;;;;4982941;28;20025;-77
2022/07/15 07:58:16;;;;;;;4.78;0.80;;;;;;;;;;4984689;28;20023;-77
2022/07/15 08:00:43;;;;;;;5.40;0.73;;;;;;;;;;4984736;28;20022;-77
2022/07/15 08:03:09;;;;;;;6.60;1.20;;;;;;;;;;4983404;28;20026;-76
2022/07/15 08:05:35;;;;;;;3.17;0.60;;;;;;;;;;4982835;28;20065;-77
2022/07/15 08:08:17;;;;;;;4.88;0.85;;;;;;;;;;4985691;28;20030;-77
2022/07/15 08:10:45;;;;;;;4.15;0.60;;;;;;;;;;4983877;28;20461;-77
2022/07/15 08:13:12;;;;;;;11.18;1.08;;;;;;;;;;4984910;28;20023;-76
2022/07/15 08:15:39;;;;;;;5.18;1.05;;;;;;;;;;4981402;28;20026;-77
2022/07/15 08:18:05;;;;;;;22.77;1.65;;;;;;;;;;4983050;28;20394;-76
2022/07/15 08:20:31;;;;;;;5.35;0.88;;;;;;;;;;4986925;28;20450;-76
2022/07/15 08:23:01;;;;;;;9.40;0.73;;;;;;;;;;4981163;28;20051;-77
2022/07/15 08:25:31;;;;;;;5.13;0.82;;;;;;;;;;4986693;28;20014;-77
2022/07/15 08:27:58;;;;;;;3.97;0.57;;;;;;;;;;4989319;28;20114;-77
2022/07/15 08:30:25;;;;;;;6.97;0.85;;;;;;;;;;4986631;28;20117;-77
2022/07/15 08:32:51;;;;;;;5.25;0.75;;;;;;;;;;4983976;28;20019;-78
2022/07/15 08:35:17;;;;;;;8.02;0.95;;;;;;;;;;4983443;28;20046;-77
2022/07/15 08:37:43;;;;;;;11.65;1.35;;;;;;;;;;4985153;28;20023;-76
2022/07/15 08:40:10;;;;;;;8.60;0.90;;;;;;;;;;4989200;28;20034;-77
2022/07/15 08:42:42;;;;;;;6.28;0.60;;;;;;;;;;4995090;28;20529;-77
2022/07/15 08:45:09;;;;;;;5.88;0.75;;;;;;;;;;4990070;28;20087;-75
2022/07/15 08:47:37;;;;;;;7.38;0.80;;;;;;;;;;4963012;28;20032;-75
2022/07/15 08:50:04;;;;;;;3.33;0.75;;;;;;;;;;4958306;28;20036;-75
2022/07/15 08:52:31;;;;;;;4.80;0.73;;;;;;;;;;4963830;28;20043;-75
2022/07/15 08:54:58;;;;;;;2.78;0.60;;;;;;;;;;4961322;28;20031;-75
2022/07/15 08:57:24;;;;;;;6.75;0.63;;;;;;;;;;4957470;28;20034;-75
2022/07/15 08:59:51;;;;;;;3.92;0.68;;;;;;;;;;4955412;28;20019;-76
2022/07/15 09:02:20;;;;;;;3.95;0.70;;;;;;;;;;4968395;28;20030;-77
2022/07/15 09:05:05;;;;;;;8.40;0.95;;;;;;;;;;4988988;28;20037;-77
2022/07/15 09:07:40;;;;;;;5.88;0.57;;;;;;;;;;4974920;28;20042;-77
2022/07/15 09:10:06;;;;;;;6.47;0.77;;;;;;;;;;4994557;28;20488;-80
2022/07/15 09:12:41;;;;;;;8.73;0.90;;;;;;;;;;4994672;28;20488;-77
2022/07/15 09:15:08;;;;;;;2.83;0.60;;;;;;;;;;4993620;28;20049;-77
2022/07/15 09:17:34;;;;;;;3.67;0.60;;;;;;;;;;4988247;28;20030;-76
2022/07/15 09:20:01;;;;;;;4.72;0.85;;;;;;;;;;4974541;28;20023;-75
2022/07/15 09:22:28;;;;;;;5.40;0.63;;;;;;;;;;4983862;28;20030;-75
2022/07/15 09:25:05;;;;;;;8.02;0.90;;;;;;;;;;4993468;28;20045;-75
2022/07/15 09:27:33;;;;;;;6.78;0.82;;;;;;;;;;4980994;28;20493;-76
2022/07/15 09:36:03;;;;;;;5.28;0.70;;;;;;;;;;4974646;28;20081;-77
2022/07/15 09:38:33;;;;;;;3.67;0.77;;;;;;;;;;4974251;28;20026;-77
2022/07/15 09:40:59;;;;;;;2.53;0.60;;;;;;;;;;4976639;28;20023;-77
2022/07/15 09:43:25;;;;;;;4.32;0.90;;;;;;;;;;4983074;28;20032;-77
2022/07/15 09:46:01;;;;;;;3.85;0.70;;;;;;;;;;4980449;28;20022;-76
2022/07/15 09:48:31;;;;;;;8.15;0.68;;;;;;;;;;4973393;28;20073;-75
2022/07/15 09:50:58;;;;;;;5.13;1.10;;;;;;;;;;4973418;28;20106;-75
2022/07/15 09:53:25;;;;;;;2.40;0.60;;;;;;;;;;4973725;28;20114;-74
2022/07/15 09:55:51;;;;;;;3.55;0.50;;;;;;;;;;4978429;28;20030;-74
2022/07/15 09:58:19;;;;;;;5.28;0.50;;;;;;;;;;4973926;28;20097;-76
2022/07/15 10:00:45;;;;;;;8.23;0.70;;;;;;;;;;4973542;28;20089;-80
2022/07/15 10:03:12;;;;;;;2.72;0.55;;;;;;;;;;4973902;28;20104;-79
2022/07/15 10:05:39;;;;;;;3.45;0.60;;;;;;;;;;4973036;28;20121;-78
2022/07/15 10:08:06;;;;;;;3.17;0.68;;;;;;;;;;4973220;28;20030;-74
2022/07/15 10:10:33;;;;;;;2.03;0.50;;;;;;;;;;4972845;28;20031;-75
2022/07/15 10:12:59;;;;;;;7.03;1.25;;;;;;;;;;4973101;28;20102;-75
2022/07/15 10:15:43;;;;;;;4.30;0.65;;;;;;;;;;4972974;28;20026;-75
2022/07/15 10:18:15;;;;;;;4.03;0.70;;;;;;;;;;4972888;28;20019;-75
2022/07/15 10:20:44;;;;;;;4.65;0.77;;;;;;;;;;4973144;28;20038;-76
2022/07/15 10:23:16;;;;;;;6.03;0.50;;;;;;;;;;4973171;28;20026;-76
2022/07/15 10:25:46;;;;;;;5.25;0.90;;;;;;;;;;4971121;28;20121;-76
2022/07/15 10:28:24;;;;;;;12.80;1.15;;;;;;;;;;4978291;28;20058;-76
2022/07/15 10:31:10;;;;;;;8.10;0.55;;;;;;;;;;4971569;28;20035;-75
2022/07/15 10:33:36;;;;;;;3.03;0.70;;;;;;;;;;4972881;28;20108;-77
2022/07/15 10:36:04;;;;;;;5.82;0.80;;;;;;;;;;4973811;28;20444;-77
2022/07/15 10:38:32;;;;;;;3.30;0.80;;;;;;;;;;4973663;28;20127;-78
2022/07/15 10:40:58;;;;;;;4.60;0.57;;;;;;;;;;4974576;28;20023;-78
2022/07/15 10:43:43;;;;;;;2.08;0.40;;;;;;;;;;4973568;28;20022;-77
2022/07/15 10:46:18;;;;;;;2.65;0.60;;;;;;;;;;4965188;28;20023;-76
2022/07/15 10:48:59;;;;;;;1.67;0.50;;;;;;;;;;4972910;28;20027;-76
2022/07/15 10:51:37;;;;;;;2.35;0.52;;;;;;;;;;4980939;28;20026;-76
2022/07/15 10:54:18;;;;;;;3.05;0.57;;;;;;;;;;4974224;28;20042;-77
2022/07/15 10:56:45;;;;;;;4.97;0.70;;;;;;;;;;4985728;28;20057;-76
2022/07/15 10:59:14;;;;;;;6.45;0.88;;;;;;;;;;4978340;28;20023;-77
2022/07/15 11:01:41;;;;;;;2.80;0.60;;;;;;;;;;4973292;28;20474;-76
2022/07/15 11:04:19;;;;;;;2.70;0.70;;;;;;;;;;4973632;28;20042;-76
2022/07/15 11:07:07;;;;;;;3.03;0.43;;;;;;;;;;4974005;28;20070;-77
2022/07/15 11:09:51;;;;;;;3.85;0.70;;;;;;;;;;4973815;28;20113;-76
2022/07/15 11:12:17;;;;;;;2.60;0.90;;;;;;;;;;4972674;28;20054;-77
2022/07/15 11:14:52;;;;;;;1.45;0.40;;;;;;;;;;4973293;28;20035;-77
2022/07/15 11:17:46;;;;;;;6.22;0.63;;;;;;;;;;4968950;28;20034;-77
2022/07/15 11:20:13;;;;;;;2.67;1.05;;;;;;;;;;4968916;28;20039;-77
2022/07/15 11:22:41;;;;;;;6.53;0.80;;;;;;;;;;4973621;28;20031;-76
2022/07/15 11:25:16;;;;;;;2.72;0.45;;;;;;;;;;4972971;28;20023;-77
2022/07/15 11:27:42;;;;;;;1.88;0.50;;;;;;;;;;4973031;28;20110;-76
2022/07/15 11:30:08;;;;;;;1.33;0.43;;;;;;;;;;4972584;28;20067;-76
2022/07/15 11:32:35;;;;;;;2.67;0.43;;;;;;;;;;4973033;28;20035;-77
2022/07/15 11:35:02;;;;;;;4.93;0.70;;;;;;;;;;4972598;28;20492;-77
2022/07/15 11:37:32;;;;;;;1.25;0.30;;;;;;;;;;4974028;28;20110;-76
2022/07/15 11:40:07;;;;;;;3.70;0.50;;;;;;;;;;4976594;28;20499;-77
2022/07/15 11:45:32;;;;;;;4.38;0.50;;;;;;;;;;4973836;28;20130;-76
2022/07/15 11:47:58;;;;;;;3.13;0.70;;;;;;;;;;4976030;28;20123;-77
2022/07/15 11:50:24;;;;;;;2.35;0.50;;;;;;;;;;4975655;28;20437;-76
2022/07/15 11:52:55;;;;;;;1.02;0.32;;;;;;;;;;4976010;28;20033;-77
2022/07/15 11:55:21;;;;;;;9.35;0.65;;;;;;;;;;4970706;28;20042;-76
2022/07/15 11:57:47;;;;;;;2.40;0.68;;;;;;;;;;4979343;28;20023;-76
2022/07/15 12:00:14;;;;;;;2.72;0.35;;;;;;;;;;4978068;28;20050;-77
2022/07/15 12:02:40;;;;;;;2.92;0.80;;;;;;;;;;4977889;28;20014;-76
2022/07/15 12:05:08;;;;;;;5.22;0.55;;;;;;;;;;4983393;28;20161;-76
2022/07/15 12:07:41;;;;;;;6.82;0.60;;;;;;;;;;4987632;28;20031;-76
2022/07/15 12:10:07;;;;;;;3.20;0.60;;;;;;;;;;4992265;28;20045;-76
2022/07/15 12:12:33;;;;;;;2.47;0.40;;;;;;;;;;4995597;28;20033;-76
2022/07/15 12:15:00;;;;;;;3.05;0.50;;;;;;;;;;4990534;28;20461;-77
2022/07/15 12:17:26;;;;;;;3.08;0.70;;;;;;;;;;4982193;28;20019;-77
2022/07/15 12:19:53;;;;;;;1.05;0.40;;;;;;;;;;4983976;28;20098;-77
2022/07/15 12:22:19;;;;;;;3.83;0.52;;;;;;;;;;4979053;28;20023;-76
2022/07/15 12:24:50;;;;;;;1.80;0.50;;;;;;;;;;4976322;28;20034;-76
2022/07/15 12:27:16;;;;;;;4.53;0.65;;;;;;;;;;4976494;28;20031;-76
2022/07/15 12:29:43;;;;;;;2.13;0.65;;;;;;;;;;4976321;28;20034;-76
2022/07/15 12:32:10;;;;;;;7.35;0.88;;;;;;;;;;4976351;28;20027;-77
2022/07/15 12:34:48;;;;;;;2.40;0.40;;;;;;;;;;4975724;28;20125;-76
2022/07/15 12:37:16;;;;;;;2.78;0.43;;;;;;;;;;4976195;28;20039;-77
2022/07/15 12:39:55;;;;;;;4.22;0.30;;;;;;;;;;4976085;28;20014;-77
2022/07/15 12:42:21;;;;;;;3.28;0.60;;;;;;;;;;4975962;28;20469;-77
2022/07/15 12:45:05;;;;;;;1.90;0.50;;;;;;;;;;4975074;28;20027;-76
2022/07/15 12:47:31;;;;;;;3.40;0.73;;;;;;;;;;4975367;28;20509;-76
2022/07/15 12:49:59;;;;;;;8.88;0.55;;;;;;;;;;4975285;28;20109;-76
2022/07/15 12:52:34;;;;;;;3.22;0.60;;;;;;;;;;4977922;28;20322;-76
2022/07/15 12:55:20;;;;;;;5.07;0.70;;;;;;;;;;4976573;28;20029;-76
2022/07/15 12:57:47;;;;;;;2.47;0.50;;;;;;;;;;4977486;28;20112;-76
2022/07/15 13:00:14;;;;;;;3.88;0.40;;;;;;;;;;4977047;28;20031;-77
2022/07/15 13:02:56;;;;;;;2.78;0.60;;;;;;;;;;4980333;28;20408;-77
2022/07/15 13:05:23;;;;;;;2.67;0.50;;;;;;;;;;4982483;28;20030;-77
2022/07/15 13:07:49;;;;;;;3.72;0.43;;;;;;;;;;4979934;28;20026;-77
2022/07/15 13:10:15;;;;;;;2.38;0.40;;;;;;;;;;4988225;28;20512;-77
2022/07/15 13:12:41;;;;;;;3.30;0.57;;;;;;;;;;4980824;28;20022;-76
2022/07/15 13:15:07;;;;;;;3.10;0.52;;;;;;;;;;4976881;28;20350;-76
2022/07/15 13:17:34;;;;;;;5.28;0.82;;;;;;;;;;4984237;28;20027;-76
2022/07/15 13:20:01;;;;;;;4.63;0.40;;;;;;;;;;4987403;28;20015;-77
2022/07/15 13:22:28;;;;;;;0.95;0.30;;;;;;;;;;4986888;28;20428;-76
2022/07/15 13:24:55;;;;;;;1.02;0.30;;;;;;;;;;4987529;28;20509;-76
2022/07/15 13:27:21;;;;;;;2.70;0.35;;;;;;;;;;4977871;28;20409;-76
2022/07/15 13:29:47;;;;;;;1.27;0.47;;;;;;;;;;4974239;28;20331;-76
2022/07/15 13:32:13;;;;;;;4.18;0.40;;;;;;;;;;4974408;28;20397;-76
2022/07/15 13:34:39;;;;;;;1.27;0.47;;;;;;;;;;4973784;28;20070;-76
2022/07/15 13:37:05;;;;;;;2.22;0.40;;;;;;;;;;4974054;28;20031;-76
2022/07/15 13:39:31;;;;;;;9.40;0.63;;;;;;;;;;4974107;28;20026;-76
2022/07/15 13:41:57;;;;;;;3.58;0.60;;;;;;;;;;4973679;28;20027;-74
2022/07/15 13:44:23;;;;;;;7.68;0.82;;;;;;;;;;4973593;28;20035;-76
2022/07/15 13:46:49;;;;;;;7.85;0.75;;;;;;;;;;4972832;28;20458;-76
2022/07/15 13:49:15;;;;;;;9.00;0.80;;;;;;;;;;4974138;28;20485;-76
2022/07/15 13:51:41;;;;;;;5.38;0.70;;;;;;;;;;4983573;28;20035;-76
2022/07/15 13:54:09;;;;;;;4.00;0.70;;;;;;;;;;4986063;28;20022;-77
2022/07/15 13:56:35;;;;;;;1.45;0.60;;;;;;;;;;4983555;28;20034;-76
2022/07/15 13:59:01;;;;;;;2.33;0.60;;;;;;;;;;4975502;28;20062;-76
2022/07/15 14:01:30;;;;;;;86.75;4.32;;;;;;;;;;4976190;28;20023;-76
2022/07/15 14:03:56;;;;;;;4.78;0.60;;;;;;;;;;4980682;28;20157;-75
2022/07/15 14:06:23;;;;;;;1.73;0.70;;;;;;;;;;4979057;28;20054;-75
2022/07/15 14:08:49;;;;;;;3.95;1.17;;;;;;;;;;4972848;28;20031;-75
2022/07/15 14:11:17;;;;;;;4.80;1.17;;;;;;;;;;4971828;28;20022;-75
2022/07/15 14:13:43;;;;;;;2.60;0.70;;;;;;;;;;4972813;28;20133;-75
2022/07/15 14:16:09;;;;;;;2.08;0.60;;;;;;;;;;4972401;28;20027;-75
2022/07/15 14:18:45;;;;;;;8.35;0.70;;;;;;;;;;4972519;28;20022;-75
2022/07/15 14:21:11;;;;;;;2.35;0.60;;;;;;;;;;4972597;28;20386;-75
2022/07/15 14:23:37;;;;;;;2.38;0.60;;;;;;;;;;4971873;28;20042;-75
2022/07/15 14:26:03;;;;;;;2.97;0.60;;;;;;;;;;4972472;28;20082;-75
2022/07/15 14:28:30;;;;;;;3.88;0.88;;;;;;;;;;4972511;28;20485;-75
2022/07/15 14:30:56;;;;;;;3.28;0.70;;;;;;;;;;4972316;28;20061;-75
2022/07/15 14:33:22;;;;;;;1.38;0.50;;;;;;;;;;4972817;28;20062;-75
2022/07/15 14:35:48;;;;;;;1.40;0.60;;;;;;;;;;4972763;28;20051;-75
2022/07/15 14:38:14;;;;;;;5.28;0.75;;;;;;;;;;4972856;28;20484;-75
2022/07/15 14:40:40;;;;;;;2.50;0.65;;;;;;;;;;4972866;28;20054;-75
2022/07/15 14:43:06;;;;;;;12.75;0.95;;;;;;;;;;4972834;28;20039;-75
2022/07/15 14:45:32;;;;;;;2.17;0.80;;;;;;;;;;4972587;28;20033;-75
2022/07/15 14:47:58;;;;;;;6.15;0.80;;;;;;;;;;4972911;28;20035;-75
2022/07/15 14:50:24;;;;;;;2.58;0.90;;;;;;;;;;4972727;28;20023;-74
2022/07/15 14:52:50;;;;;;;5.20;0.82;;;;;;;;;;4980792;28;20349;-78